Meath Environmental Platform

Observations for Trim Market St

Time AQI Temp °C Hum % Pres Pa CO μg/m³ H₂S μg/m³ NO μg/m³ NO₂ μg/m³ O₃ μg/m³ SO₂ μg/m³ PM1 μg/m³ PM2.5 μg/m³ PM10 μg/m³
Thursday 13 August 2026
12:48 2 39.9 33 66,967 0.02 0 0 6.76 75.1 3.86 0 3.72 4.1
12:45 2 39.7 32 66,953 0.09 0 0 11.47 52.7 2.74 0 3.74 4.12
12:40 2 39.1 34 66,859 0.04 0 0 8.52 64.69 2.22 1.43 3.67 4.04
12:39 2 38.9 34 66,802 0.01 0 0 12.13 65.93 1.43 0 3.13 3.44
12:38 2 38.7 35 66,764 0 0 0 10.09 51.13 1.07 0 3.65 4.01
12:37 2 38.5 35 66,743 0 0 0 11.4 55.83 0.66 0.71 3.62 3.99
12:36 2 38.2 36 66,714 0 0 0 11.65 71.07 1.18 0.71 4.14 4.55
12:35 2 38 36 66,657 0 0 0 11.65 51.49 0 0.71 3.07 3.37
12:34 2 37.7 36 66,641 0.04 0 0 8.92 45.52 0.44 0.71 3.58 3.94
12:33 2 37.5 37 66,594 0 0 0 11.75 54.11 0 0.71 3.56 3.91
12:30 2 36.7 38 66,491 0 0 0.07 12.12 63.08 0 0.71 3.5 3.85
12:27 2 36 39 66,319 0.02 0 0.14 13.15 24.77 0 0.71 3.46 3.81
12:20 2 35.2 40 66,068 0.04 0 0.22 13.25 46.79 0 1.43 3.39 3.73
12:18 2 35.1 41 65,985 0.1 0 0.23 12.47 24.47 0 1.43 3.38 3.72
12:17 2 35.1 41 65,888 0.09 0 0.24 13.14 30.99 0 1.43 3.37 3.53
12:14 2 34.8 42 65,554 0.22 0 0.27 13.18 43.03 0 0.71 3.33 3.56
12:10 2 33.9 44 64,874 0 0 0.38 12.94 57.82 0 0 3.22 3.55
12:09 2 33.6 45 64,572 0 0 0.41 13.58 60.17 0 0 2.68 2.94
12:08 2 33.3 45 64,244 0 0 0.46 13.68 58.19 0 1.43 4.22 4.43
12:07 2 33 46 64,050 0 0 0.48 12.84 94.55 0 0.71 2.65 2.91